Historyczne dane pomiarowe

Dodano dane terminowe – wersja testowa.

Dane z okresu 1951-2019

Wersja bazy: 1.34 [2019-03-16, lista zmian], aktualizacja planowana na 2019-04-15

Dane meteo z obszaru Polski uzyskane na podstawie danych udostępnionych przez Instytut Meteorologii i Gospodarki Wodnej – Państwowy Instytut Badawczy.

 

Wybierz Datę:    

       

TemperaturaWilgotnośćWiatrCiśnienieOpadyŚniegCzas trwania zjawisk
 Stacja t tx tn tng RH VA  wxwx mslp ppp RRR   cm mm wxwxwxwxwxwxwx
1956-11-09 -0.8 3.5 -2.6- 78.5- 5.0----- 0.0------------
1956-11-08 1.2 3.1 -0.3- 92.0- 8.0----- 0.0------------
1956-11-07 1.5 2.2 0.0-100.0- 8.0----- 5.2------------
1956-11-06 2.1 5.1 0.0- 92.0- 7.3----- 16.1------------
1956-11-05 5.2 9.7 2.0- 77.5- 4.0----- 0.1------------
1956-11-04 3.8 5.2 -0.8- 93.5- 8.0----- 4.9------------
1956-11-03 1.0 5.6 -3.4- 94.3- 4.3----- 0.0------------
1956-11-02 1.6 5.4 0.0- 90.3- 5.0----- 0.0------------
1956-11-01 -0.4 1.5 -6.1- 86.5- 5.3----- 3.0------------
1956-10-31 -4.2 0.3 -6.4- 87.5- 0.0----- 0.0------------
1956-10-30 0.1 1.9 -0.4- 98.5- 8.0----- 0.0------------
1956-10-29 3.1 7.2 1.3- 98.8- 8.0----- 14.3------------
1956-10-28 7.8 9.5 6.5- 99.5- 8.0----- 5.6------------
1956-10-27 6.6 7.4 2.8- 99.0- 8.0----- 19.2------------
1956-10-26 6.2 9.2 4.8- 90.0- 5.3----- 0.7------------
1956-10-25 9.8 14.7 7.0- 87.3- 5.3----- 0.0------------
1956-10-24 12.6 15.0 9.8- 91.3- 8.0----- 0.0------------
1956-10-23 10.9 14.4 9.3- 84.3- 5.7----- 0.0------------
1956-10-22 11.7 13.0 10.4- 85.5- 8.0----- 0.0------------
1956-10-21 13.2 16.2 7.1- 92.5- 6.7----- 0.0------------
1956-10-20 11.6 12.5 8.0- 82.8- 3.7----- 0.7------------
1956-10-19 11.3 14.4 9.1- 92.0- 7.3----- 0.0------------
1956-10-18 12.0 13.4 5.4- 97.5- 8.0----- 2.6------------
1956-10-17 9.7 15.4 3.2- 86.0- 5.3----- 0.0------------
1956-10-16 7.4 13.8 1.3- 79.0- 0.3----- 0.0------------
1956-10-15 5.4 12.9 2.0- 94.8- 4.0----- 0.0------------
1956-10-14 10.0 13.6 8.1- 86.3- 4.0----- 0.0------------
1956-10-13 11.2 13.0 5.7- 79.5- 8.0----- 3.1------------
1956-10-12 9.8 12.9 4.2- 93.3- 8.0----- 0.0------------
1956-10-11 8.0 11.5 2.7- 86.5- 8.0----- 0.0------------
1956-10-10 5.4 10.7 0.3- 82.5- 1.3----- 0.0------------
1956-10-09 6.5 11.2 4.6-100.0- 5.3----- 1.5------------
1956-10-08 5.8 9.6 2.5- 84.3- 3.7----- 3.1------------
1956-10-07 5.6 10.2 3.5- 86.0- 0.3----- 0.5------------
1956-10-06 5.9 10.1 2.5- 92.5- 3.3----- 3.5------------
1956-10-05 7.1 10.6 5.5- 92.0- 6.0----- 1.4------------
1956-10-04 9.7 14.7 7.1- 94.8- 5.0----- 1.4------------
1956-10-03 11.2 15.3 8.3- 96.5- 5.3----- 0.2------------
1956-10-02 16.3 21.5 11.3- 90.3- 4.3----- 28.6------------
1956-10-01 15.0 20.1 9.5- 91.0- 5.0----- 2.1------------
1956-09-30 12.7 18.6 8.8- 83.5- 1.7----- 1.0------------
1956-09-29 13.1 16.8 11.2- 87.0- 6.0----- 0.0------------
1956-09-28 15.2 17.8 4.9- 83.8- 8.0----- 1.4------------
1956-09-27 14.0 22.0 6.8- 91.5- 4.0----- 15.3------------
1956-09-26 13.9 24.6 5.0- 72.0- 0.0----- 0.0------------
1956-09-25 12.3 20.1 5.1- 82.3- 0.0----- 0.0------------
1956-09-24 12.0 17.8 6.0- 77.8- 0.7----- 0.0------------
1956-09-23 13.2 19.8 5.9- 77.5- 0.3----- 0.0------------
1956-09-22 14.0 19.8 5.4- 73.3- 1.0----- 0.0------------
1956-09-21 11.7 19.0 8.5- 81.0- 2.0----- 0.0------------
1956-09-20 11.4 18.1 4.3- 84.5- 0.7----- 0.0------------
1956-09-19 10.3 16.8 2.5- 77.0- 0.0----- 0.0------------
1956-09-18 9.0 16.1 2.3- 87.0- 2.7----- 0.0------------
1956-09-17 9.8 15.7 7.0- 91.3- 4.3----- 5.8------------
1956-09-16 12.0 16.7 5.4- 81.3- 4.7----- 0.0------------
1956-09-15 10.8 16.6 6.9- 83.3- 1.7----- 0.0------------
1956-09-14 10.9 17.3 5.9- 91.3- 0.3----- 0.0------------
1956-09-13 10.0 14.8 7.6- 91.3- 3.3----- 5.1------------
1956-09-12 11.4 16.8 8.5- 87.3- 8.0----- 2.3------------
1956-09-11 15.6 19.9 13.2- 93.0- 6.7----- 9.8------------
257.0 ms

 

Źródłem pochodzenia danych jest Instytut Meteorologii i Gospodarki Wodnej – Państwowy Instytut Badawczy. Dane Instytutu Meteorologii i Gospodarki Wodnej – Państwowego Instytutu Badawczego zostały przetworzone.

Dane źródłowe można odnaleźć na stronie https://dane.imgw.pl